sensor_id;sensor_type;location;lat;lon;timestamp;pressure;altitude;pressure_sealevel;temperature;humidity
6198;BME280;3132;42.622;23.328;2023-03-04T00:00:55;92810.88;;;5.32;100.00
6198;BME280;3132;42.622;23.328;2023-03-04T00:03:21;92793.13;;;5.19;100.00
6198;BME280;3132;42.622;23.328;2023-03-04T00:05:46;92797.69;;;5.12;100.00
6198;BME280;3132;42.622;23.328;2023-03-04T00:08:12;92805.28;;;5.40;100.00
6198;BME280;3132;42.622;23.328;2023-03-04T00:10:37;92805.47;;;5.33;100.00
6198;BME280;3132;42.622;23.328;2023-03-04T00:13:03;92804.41;;;5.34;100.00
6198;BME280;3132;42.622;23.328;2023-03-04T00:15:28;92801.81;;;5.29;100.00
6198;BME280;3132;42.622;23.328;2023-03-04T00:17:54;92799.69;;;5.48;100.00
6198;BME280;3132;42.622;23.328;2023-03-04T00:20:20;92779.94;;;5.20;100.00
6198;BME280;3132;42.622;23.328;2023-03-04T00:22:45;92792.28;;;5.35;100.00
6198;BME280;3132;42.622;23.328;2023-03-04T00:25:11;92807.19;;;5.28;100.00
6198;BME280;3132;42.622;23.328;2023-03-04T00:27:36;92798.41;;;5.29;100.00
6198;BME280;3132;42.622;23.328;2023-03-04T00:30:02;92802.00;;;5.28;100.00
6198;BME280;3132;42.622;23.328;2023-03-04T00:32:28;92789.22;;;5.16;100.00
6198;BME280;3132;42.622;23.328;2023-03-04T00:34:53;92778.06;;;5.16;100.00
6198;BME280;3132;42.622;23.328;2023-03-04T00:37:18;92773.44;;;5.18;100.00
6198;BME280;3132;42.622;23.328;2023-03-04T00:39:44;92795.34;;;5.32;100.00
6198;BME280;3132;42.622;23.328;2023-03-04T00:42:09;92643.16;;;4.37;100.00
6198;BME280;3132;42.622;23.328;2023-03-04T00:44:34;92776.69;;;5.30;100.00
6198;BME280;3132;42.622;23.328;2023-03-04T00:47:00;92777.66;;;5.24;100.00
6198;BME280;3132;42.622;23.328;2023-03-04T00:49:25;92793.59;;;5.37;100.00
6198;BME280;3132;42.622;23.328;2023-03-04T00:51:51;92794.88;;;5.35;100.00
6198;BME280;3132;42.622;23.328;2023-03-04T00:54:16;92786.97;;;5.25;100.00
6198;BME280;3132;42.622;23.328;2023-03-04T00:56:41;92793.34;;;5.39;100.00
6198;BME280;3132;42.622;23.328;2023-03-04T00:59:07;92779.88;;;5.37;100.00
6198;BME280;3132;42.622;23.328;2023-03-04T01:01:32;92799.63;;;5.43;100.00
6198;BME280;3132;42.622;23.328;2023-03-04T01:03:57;92796.06;;;5.49;100.00
6198;BME280;3132;42.622;23.328;2023-03-04T01:06:23;92798.88;;;5.47;100.00
6198;BME280;3132;42.622;23.328;2023-03-04T01:08:48;92785.34;;;5.40;100.00
6198;BME280;3132;42.622;23.328;2023-03-04T01:11:14;92777.88;;;5.44;100.00
6198;BME280;3132;42.622;23.328;2023-03-04T01:13:39;92765.84;;;5.33;100.00
6198;BME280;3132;42.622;23.328;2023-03-04T01:16:05;92778.50;;;5.56;100.00
6198;BME280;3132;42.622;23.328;2023-03-04T01:18:31;92783.09;;;5.49;100.00
6198;BME280;3132;42.622;23.328;2023-03-04T01:20:57;92757.75;;;5.24;100.00
6198;BME280;3132;42.622;23.328;2023-03-04T01:23:23;92778.34;;;5.41;100.00
6198;BME280;3132;42.622;23.328;2023-03-04T01:25:48;92782.69;;;5.57;100.00
6198;BME280;3132;42.622;23.328;2023-03-04T01:28:14;92746.59;;;5.24;100.00
6198;BME280;3132;42.622;23.328;2023-03-04T01:30:39;92765.34;;;5.36;100.00
6198;BME280;3132;42.622;23.328;2023-03-04T01:33:04;92738.19;;;5.12;100.00
6198;BME280;3132;42.622;23.328;2023-03-04T01:35:30;92772.84;;;5.32;100.00
6198;BME280;3132;42.622;23.328;2023-03-04T01:37:55;92767.69;;;5.37;100.00
6198;BME280;3132;42.622;23.328;2023-03-04T01:40:21;92764.88;;;5.39;100.00
6198;BME280;3132;42.622;23.328;2023-03-04T01:42:46;92740.34;;;5.20;100.00
6198;BME280;3132;42.622;23.328;2023-03-04T01:45:16;92754.91;;;5.26;100.00
6198;BME280;3132;42.622;23.328;2023-03-04T01:47:45;92758.63;;;5.35;100.00
6198;BME280;3132;42.622;23.328;2023-03-04T01:50:20;92756.94;;;5.24;100.00
6198;BME280;3132;42.622;23.328;2023-03-04T01:52:46;92749.25;;;5.29;100.00
6198;BME280;3132;42.622;23.328;2023-03-04T01:55:19;92756.28;;;5.33;100.00
6198;BME280;3132;42.622;23.328;2023-03-04T01:57:46;92750.31;;;5.33;100.00
6198;BME280;3132;42.622;23.328;2023-03-04T02:00:26;92761.16;;;5.30;100.00
6198;BME280;3132;42.622;23.328;2023-03-04T02:02:54;92751.28;;;5.27;100.00
6198;BME280;3132;42.622;23.328;2023-03-04T02:05:22;92750.50;;;5.26;100.00
6198;BME280;3132;42.622;23.328;2023-03-04T02:07:49;92715.81;;;5.01;100.00
6198;BME280;3132;42.622;23.328;2023-03-04T02:10:15;92737.75;;;5.20;100.00
6198;BME280;3132;42.622;23.328;2023-03-04T02:12:41;92741.53;;;5.12;100.00
6198;BME280;3132;42.622;23.328;2023-03-04T02:15:07;92731.03;;;4.97;100.00
6198;BME280;3132;42.622;23.328;2023-03-04T02:17:32;92739.81;;;5.18;100.00
6198;BME280;3132;42.622;23.328;2023-03-04T02:20:24;92748.28;;;5.13;100.00
6198;BME280;3132;42.622;23.328;2023-03-04T02:23:08;92726.09;;;4.95;100.00
6198;BME280;3132;42.622;23.328;2023-03-04T02:25:44;92747.75;;;5.11;100.00
6198;BME280;3132;42.622;23.328;2023-03-04T02:28:12;92747.25;;;5.14;100.00
6198;BME280;3132;42.622;23.328;2023-03-04T02:30:38;92734.88;;;4.94;100.00
6198;BME280;3132;42.622;23.328;2023-03-04T02:33:04;92745.31;;;5.00;100.00
6198;BME280;3132;42.622;23.328;2023-03-04T02:35:29;92736.34;;;5.07;100.00
6198;BME280;3132;42.622;23.328;2023-03-04T02:37:55;92735.66;;;5.17;100.00
6198;BME280;3132;42.622;23.328;2023-03-04T02:40:32;92718.81;;;4.92;100.00
6198;BME280;3132;42.622;23.328;2023-03-04T02:42:59;92724.66;;;4.83;100.00
6198;BME280;3132;42.622;23.328;2023-03-04T02:45:43;92734.28;;;4.87;100.00
6198;BME280;3132;42.622;23.328;2023-03-04T02:48:10;92725.44;;;4.83;100.00
6198;BME280;3132;42.622;23.328;2023-03-04T02:50:48;92727.88;;;4.73;100.00
6198;BME280;3132;42.622;23.328;2023-03-04T02:53:15;92724.72;;;4.66;100.00
6198;BME280;3132;42.622;23.328;2023-03-04T02:55:41;92729.25;;;4.59;100.00
6198;BME280;3132;42.622;23.328;2023-03-04T02:58:08;92730.69;;;4.50;100.00
6198;BME280;3132;42.622;23.328;2023-03-04T03:00:34;92729.44;;;4.53;100.00
6198;BME280;3132;42.622;23.328;2023-03-04T03:02:59;92717.06;;;4.55;100.00
6198;BME280;3132;42.622;23.328;2023-03-04T03:05:26;92729.97;;;4.71;100.00
6198;BME280;3132;42.622;23.328;2023-03-04T03:07:52;92728.50;;;4.80;100.00
6198;BME280;3132;42.622;23.328;2023-03-04T03:10:18;92735.31;;;4.86;100.00
6198;BME280;3132;42.622;23.328;2023-03-04T03:12:44;92732.34;;;4.78;100.00
6198;BME280;3132;42.622;23.328;2023-03-04T03:15:09;92727.38;;;4.71;100.00
6198;BME280;3132;42.622;23.328;2023-03-04T03:17:35;92726.41;;;4.77;100.00
6198;BME280;3132;42.622;23.328;2023-03-04T03:20:00;92693.69;;;4.66;100.00
6198;BME280;3132;42.622;23.328;2023-03-04T03:22:26;92734.97;;;5.00;100.00
6198;BME280;3132;42.622;23.328;2023-03-04T03:24:51;92726.88;;;4.74;100.00
6198;BME280;3132;42.622;23.328;2023-03-04T03:27:16;92684.19;;;4.50;100.00
6198;BME280;3132;42.622;23.328;2023-03-04T03:29:42;92722.91;;;4.67;100.00
6198;BME280;3132;42.622;23.328;2023-03-04T03:32:07;92722.72;;;4.73;100.00
6198;BME280;3132;42.622;23.328;2023-03-04T03:34:33;92702.22;;;4.67;100.00
6198;BME280;3132;42.622;23.328;2023-03-04T03:36:58;92701.69;;;4.65;100.00
6198;BME280;3132;42.622;23.328;2023-03-04T03:39:24;92712.69;;;4.55;100.00
6198;BME280;3132;42.622;23.328;2023-03-04T03:41:49;92725.69;;;4.44;100.00
6198;BME280;3132;42.622;23.328;2023-03-04T03:44:14;92723.94;;;4.28;100.00
6198;BME280;3132;42.622;23.328;2023-03-04T03:46:40;92717.31;;;4.15;100.00
6198;BME280;3132;42.622;23.328;2023-03-04T03:49:05;92710.91;;;4.01;100.00
6198;BME280;3132;42.622;23.328;2023-03-04T03:51:31;92704.00;;;3.90;100.00
6198;BME280;3132;42.622;23.328;2023-03-04T03:53:56;92711.81;;;3.79;100.00
6198;BME280;3132;42.622;23.328;2023-03-04T03:56:21;92707.59;;;3.73;100.00
6198;BME280;3132;42.622;23.328;2023-03-04T03:58:47;92713.72;;;3.67;100.00
6198;BME280;3132;42.622;23.328;2023-03-04T04:01:12;92700.56;;;3.52;100.00
6198;BME280;3132;42.622;23.328;2023-03-04T04:03:38;92694.13;;;3.38;100.00
6198;BME280;3132;42.622;23.328;2023-03-04T04:06:03;92698.19;;;3.33;100.00
6198;BME280;3132;42.622;23.328;2023-03-04T04:08:29;92700.81;;;3.50;100.00
6198;BME280;3132;42.622;23.328;2023-03-04T04:10:54;92684.25;;;3.18;100.00
6198;BME280;3132;42.622;23.328;2023-03-04T04:13:19;92683.69;;;3.16;100.00
6198;BME280;3132;42.622;23.328;2023-03-04T04:15:45;92695.22;;;3.25;100.00
6198;BME280;3132;42.622;23.328;2023-03-04T04:18:10;92664.69;;;3.05;100.00
6198;BME280;3132;42.622;23.328;2023-03-04T04:20:35;92699.84;;;3.11;100.00
6198;BME280;3132;42.622;23.328;2023-03-04T04:23:01;92688.69;;;3.06;100.00
6198;BME280;3132;42.622;23.328;2023-03-04T04:25:27;92701.72;;;3.16;100.00
6198;BME280;3132;42.622;23.328;2023-03-04T04:27:52;92695.16;;;3.08;100.00
6198;BME280;3132;42.622;23.328;2023-03-04T04:30:18;92695.16;;;3.08;100.00
6198;BME280;3132;42.622;23.328;2023-03-04T04:32:44;92696.19;;;3.07;100.00
6198;BME280;3132;42.622;23.328;2023-03-04T04:35:09;92703.59;;;3.04;100.00
6198;BME280;3132;42.622;23.328;2023-03-04T04:37:35;92702.38;;;3.06;100.00
6198;BME280;3132;42.622;23.328;2023-03-04T04:40:01;92703.88;;;2.91;100.00
6198;BME280;3132;42.622;23.328;2023-03-04T04:42:26;92707.31;;;2.96;100.00
6198;BME280;3132;42.622;23.328;2023-03-04T04:44:52;92686.78;;;3.01;100.00
6198;BME280;3132;42.622;23.328;2023-03-04T04:47:17;92685.91;;;2.96;100.00
6198;BME280;3132;42.622;23.328;2023-03-04T04:49:43;92684.53;;;3.05;100.00
6198;BME280;3132;42.622;23.328;2023-03-04T04:52:09;92703.09;;;3.18;100.00
6198;BME280;3132;42.622;23.328;2023-03-04T04:54:34;92704.63;;;3.03;100.00
6198;BME280;3132;42.622;23.328;2023-03-04T04:57:00;92693.88;;;2.94;100.00
6198;BME280;3132;42.622;23.328;2023-03-04T04:59:25;92695.69;;;2.94;100.00
6198;BME280;3132;42.622;23.328;2023-03-04T05:01:50;92692.41;;;2.98;100.00
6198;BME280;3132;42.622;23.328;2023-03-04T05:04:16;92696.69;;;2.93;100.00
6198;BME280;3132;42.622;23.328;2023-03-04T05:06:41;92710.22;;;3.00;100.00
6198;BME280;3132;42.622;23.328;2023-03-04T05:09:07;92700.28;;;2.92;100.00
6198;BME280;3132;42.622;23.328;2023-03-04T05:11:32;92699.19;;;2.88;100.00
6198;BME280;3132;42.622;23.328;2023-03-04T05:13:58;92726.63;;;3.22;100.00
6198;BME280;3132;42.622;23.328;2023-03-04T05:16:23;92691.06;;;2.96;100.00
6198;BME280;3132;42.622;23.328;2023-03-04T05:18:48;92725.56;;;3.06;100.00
6198;BME280;3132;42.622;23.328;2023-03-04T05:21:14;92727.09;;;3.19;100.00
6198;BME280;3132;42.622;23.328;2023-03-04T05:23:41;92663.63;;;2.90;100.00
6198;BME280;3132;42.622;23.328;2023-03-04T05:26:09;92713.91;;;3.32;100.00
6198;BME280;3132;42.622;23.328;2023-03-04T05:28:35;92733.31;;;3.51;100.00
6198;BME280;3132;42.622;23.328;2023-03-04T05:31:01;92718.53;;;3.47;100.00
6198;BME280;3132;42.622;23.328;2023-03-04T05:33:27;92736.56;;;3.91;100.00
6198;BME280;3132;42.622;23.328;2023-03-04T05:35:52;92735.31;;;3.94;100.00
6198;BME280;3132;42.622;23.328;2023-03-04T05:38:19;92731.09;;;4.04;100.00
6198;BME280;3132;42.622;23.328;2023-03-04T05:40:45;92741.34;;;3.99;100.00
6198;BME280;3132;42.622;23.328;2023-03-04T05:43:11;92739.53;;;4.16;100.00
6198;BME280;3132;42.622;23.328;2023-03-04T05:45:37;92736.72;;;4.18;100.00
6198;BME280;3132;42.622;23.328;2023-03-04T05:48:04;92690.72;;;3.98;100.00
6198;BME280;3132;42.622;23.328;2023-03-04T05:50:30;92743.97;;;4.21;100.00
6198;BME280;3132;42.622;23.328;2023-03-04T05:52:56;92740.06;;;4.35;100.00
6198;BME280;3132;42.622;23.328;2023-03-04T05:55:21;92732.38;;;4.40;100.00
6198;BME280;3132;42.622;23.328;2023-03-04T05:57:47;92752.59;;;4.64;100.00
6198;BME280;3132;42.622;23.328;2023-03-04T06:00:14;92753.34;;;4.81;100.00
6198;BME280;3132;42.622;23.328;2023-03-04T06:02:40;92752.31;;;4.82;100.00
6198;BME280;3132;42.622;23.328;2023-03-04T06:05:07;92748.06;;;4.71;100.00
6198;BME280;3132;42.622;23.328;2023-03-04T06:07:33;92751.00;;;4.80;100.00
6198;BME280;3132;42.622;23.328;2023-03-04T06:09:58;92749.94;;;4.97;100.00
6198;BME280;3132;42.622;23.328;2023-03-04T06:12:24;92757.44;;;5.21;100.00
6198;BME280;3132;42.622;23.328;2023-03-04T06:14:49;92764.81;;;5.12;100.00
6198;BME280;3132;42.622;23.328;2023-03-04T06:17:15;92762.06;;;4.97;100.00
6198;BME280;3132;42.622;23.328;2023-03-04T06:19:40;92749.09;;;5.14;100.00
6198;BME280;3132;42.622;23.328;2023-03-04T06:22:09;92764.78;;;5.29;100.00
6198;BME280;3132;42.622;23.328;2023-03-04T06:24:35;92765.09;;;5.32;100.00
6198;BME280;3132;42.622;23.328;2023-03-04T06:27:01;92770.16;;;5.49;100.00
6198;BME280;3132;42.622;23.328;2023-03-04T06:29:26;92766.69;;;5.38;100.00
6198;BME280;3132;42.622;23.328;2023-03-04T06:31:52;92769.50;;;5.58;100.00
6198;BME280;3132;42.622;23.328;2023-03-04T06:34:18;92746.75;;;5.65;100.00
6198;BME280;3132;42.622;23.328;2023-03-04T06:36:43;92756.38;;;5.70;100.00
6198;BME280;3132;42.622;23.328;2023-03-04T06:39:09;92777.78;;;5.82;100.00
6198;BME280;3132;42.622;23.328;2023-03-04T06:41:34;92774.22;;;5.88;100.00
6198;BME280;3132;42.622;23.328;2023-03-04T06:44:00;92765.16;;;5.90;100.00
6198;BME280;3132;42.622;23.328;2023-03-04T06:46:25;92774.78;;;5.95;100.00
6198;BME280;3132;42.622;23.328;2023-03-04T06:48:51;92788.16;;;5.82;100.00
6198;BME280;3132;42.622;23.328;2023-03-04T06:51:17;92789.75;;;5.88;100.00
6198;BME280;3132;42.622;23.328;2023-03-04T06:53:42;92789.75;;;5.88;100.00
6198;BME280;3132;42.622;23.328;2023-03-04T06:56:09;92793.53;;;5.80;100.00
6198;BME280;3132;42.622;23.328;2023-03-04T06:58:36;92793.25;;;5.77;100.00
6198;BME280;3132;42.622;23.328;2023-03-04T07:01:19;92789.53;;;5.68;100.00
6198;BME280;3132;42.622;23.328;2023-03-04T07:03:46;92795.69;;;5.62;100.00
6198;BME280;3132;42.622;23.328;2023-03-04T07:06:14;92791.28;;;5.62;100.00
6198;BME280;3132;42.622;23.328;2023-03-04T07:08:40;92795.97;;;5.65;100.00
6198;BME280;3132;42.622;23.328;2023-03-04T07:11:06;92794.91;;;5.61;100.00
6198;BME280;3132;42.622;23.328;2023-03-04T07:13:31;92778.63;;;5.66;100.00
6198;BME280;3132;42.622;23.328;2023-03-04T07:15:59;92799.28;;;5.61;100.00
6198;BME280;3132;42.622;23.328;2023-03-04T07:18:25;92779.50;;;5.28;100.00
6198;BME280;3132;42.622;23.328;2023-03-04T07:20:51;92800.16;;;5.45;100.00
6198;BME280;3132;42.622;23.328;2023-03-04T07:23:17;92797.59;;;5.50;100.00
6198;BME280;3132;42.622;23.328;2023-03-04T07:25:43;92801.28;;;5.54;100.00
6198;BME280;3132;42.622;23.328;2023-03-04T07:28:08;92799.28;;;5.61;100.00
6198;BME280;3132;42.622;23.328;2023-03-04T07:30:34;92795.44;;;5.42;100.00
6198;BME280;3132;42.622;23.328;2023-03-04T07:32:59;92791.75;;;5.59;100.00
6198;BME280;3132;42.622;23.328;2023-03-04T07:35:24;92805.38;;;5.50;100.00
6198;BME280;3132;42.622;23.328;2023-03-04T07:37:50;92803.09;;;5.53;100.00
6198;BME280;3132;42.622;23.328;2023-03-04T07:40:15;92802.41;;;5.63;100.00
6198;BME280;3132;42.622;23.328;2023-03-04T07:42:40;92791.94;;;5.53;100.00
6198;BME280;3132;42.622;23.328;2023-03-04T07:45:06;92796.38;;;5.79;100.00
6198;BME280;3132;42.622;23.328;2023-03-04T07:47:32;92785.69;;;5.97;100.00
6198;BME280;3132;42.622;23.328;2023-03-04T07:49:58;92801.41;;;5.90;100.00
6198;BME280;3132;42.622;23.328;2023-03-04T07:52:23;92790.31;;;5.95;100.00
6198;BME280;3132;42.622;23.328;2023-03-04T07:54:49;92785.06;;;5.85;100.00
6198;BME280;3132;42.622;23.328;2023-03-04T07:57:14;92801.59;;;6.05;100.00
6198;BME280;3132;42.622;23.328;2023-03-04T07:59:39;92799.00;;;6.10;100.00
6198;BME280;3132;42.622;23.328;2023-03-04T08:02:05;92800.09;;;6.14;100.00
6198;BME280;3132;42.622;23.328;2023-03-04T08:04:31;92801.34;;;6.12;100.00
6198;BME280;3132;42.622;23.328;2023-03-04T08:06:56;92788.34;;;5.80;100.00
6198;BME280;3132;42.622;23.328;2023-03-04T08:09:22;92794.81;;;6.04;100.00
6198;BME280;3132;42.622;23.328;2023-03-04T08:11:47;92798.06;;;5.90;100.00
6198;BME280;3132;42.622;23.328;2023-03-04T08:14:13;92792.84;;;5.85;100.00
6198;BME280;3132;42.622;23.328;2023-03-04T08:16:39;92798.44;;;6.03;100.00
6198;BME280;3132;42.622;23.328;2023-03-04T08:19:05;92791.47;;;6.09;100.00
6198;BME280;3132;42.622;23.328;2023-03-04T08:21:31;92789.38;;;6.06;100.00
6198;BME280;3132;42.622;23.328;2023-03-04T08:23:59;92790.28;;;5.68;100.00
6198;BME280;3132;42.622;23.328;2023-03-04T08:26:33;92792.28;;;5.83;100.00
6198;BME280;3132;42.622;23.328;2023-03-04T08:29:00;92791.41;;;5.99;100.00
6198;BME280;3132;42.622;23.328;2023-03-04T08:31:26;92777.44;;;5.78;100.00
6198;BME280;3132;42.622;23.328;2023-03-04T08:33:51;92780.84;;;5.79;100.00
6198;BME280;3132;42.622;23.328;2023-03-04T08:36:17;92772.91;;;5.90;100.00
6198;BME280;3132;42.622;23.328;2023-03-04T08:38:42;92789.44;;;6.47;99.50
6198;BME280;3132;42.622;23.328;2023-03-04T08:41:08;92790.63;;;6.67;96.97
6198;BME280;3132;42.622;23.328;2023-03-04T08:43:34;92786.31;;;6.82;97.76
6198;BME280;3132;42.622;23.328;2023-03-04T08:45:59;92788.50;;;7.00;96.96
6198;BME280;3132;42.622;23.328;2023-03-04T08:48:25;92787.09;;;7.39;94.23
6198;BME280;3132;42.622;23.328;2023-03-04T08:50:51;92792.38;;;7.59;91.34
6198;BME280;3132;42.622;23.328;2023-03-04T08:53:18;92771.28;;;7.41;91.86
6198;BME280;3132;42.622;23.328;2023-03-04T08:55:44;92784.97;;;7.26;90.87
6198;BME280;3132;42.622;23.328;2023-03-04T08:58:10;92787.59;;;7.36;90.39
6198;BME280;3132;42.622;23.328;2023-03-04T09:00:39;92782.16;;;7.38;91.92
6198;BME280;3132;42.622;23.328;2023-03-04T09:03:05;92788.44;;;7.57;88.97
6198;BME280;3132;42.622;23.328;2023-03-04T09:05:31;92786.66;;;7.62;87.88
6198;BME280;3132;42.622;23.328;2023-03-04T09:07:57;92783.50;;;7.50;89.32
6198;BME280;3132;42.622;23.328;2023-03-04T09:10:22;92784.28;;;7.51;91.44
6198;BME280;3132;42.622;23.328;2023-03-04T09:12:48;92774.69;;;7.51;91.32
6198;BME280;3132;42.622;23.328;2023-03-04T09:15:13;92777.31;;;7.56;90.95
6198;BME280;3132;42.622;23.328;2023-03-04T09:17:39;92783.56;;;7.75;91.50
6198;BME280;3132;42.622;23.328;2023-03-04T09:20:06;92777.38;;;7.91;89.76
6198;BME280;3132;42.622;23.328;2023-03-04T09:22:34;92732.91;;;7.83;89.58
6198;BME280;3132;42.622;23.328;2023-03-04T09:24:59;92769.84;;;7.95;86.46
6198;BME280;3132;42.622;23.328;2023-03-04T09:27:25;92773.00;;;8.42;87.25
6198;BME280;3132;42.622;23.328;2023-03-04T09:29:50;92746.75;;;8.34;85.61
6198;BME280;3132;42.622;23.328;2023-03-04T09:32:16;92761.50;;;8.08;86.43
6198;BME280;3132;42.622;23.328;2023-03-04T09:34:41;92760.19;;;7.95;87.75
6198;BME280;3132;42.622;23.328;2023-03-04T09:37:07;92741.94;;;7.50;88.78
6198;BME280;3132;42.622;23.328;2023-03-04T09:39:32;92735.66;;;7.36;87.32
6198;BME280;3132;42.622;23.328;2023-03-04T09:41:59;92759.69;;;8.79;84.71
6198;BME280;3132;42.622;23.328;2023-03-04T09:44:26;92763.72;;;9.25;82.35
6198;BME280;3132;42.622;23.328;2023-03-04T09:46:54;92766.75;;;9.47;80.75
6198;BME280;3132;42.622;23.328;2023-03-04T09:49:23;92769.97;;;9.82;80.33
6198;BME280;3132;42.622;23.328;2023-03-04T09:52:01;92758.13;;;9.51;82.17
6198;BME280;3132;42.622;23.328;2023-03-04T09:57:00;92750.88;;;8.35;83.45
6198;BME280;3132;42.622;23.328;2023-03-04T09:59:40;92731.09;;;7.93;84.72
6198;BME280;3132;42.622;23.328;2023-03-04T10:02:19;92740.19;;;8.56;82.23
6198;BME280;3132;42.622;23.328;2023-03-04T10:04:55;92728.00;;;8.32;84.71
6198;BME280;3132;42.622;23.328;2023-03-04T10:07:26;92743.06;;;8.04;87.39
6198;BME280;3132;42.622;23.328;2023-03-04T10:10:15;92741.25;;;8.20;86.41
6198;BME280;3132;42.622;23.328;2023-03-04T10:12:45;92702.50;;;7.83;87.62
6198;BME280;3132;42.622;23.328;2023-03-04T10:15:22;92746.97;;;8.17;86.12
6198;BME280;3132;42.622;23.328;2023-03-04T10:18:10;92733.16;;;7.86;88.29
6198;BME280;3132;42.622;23.328;2023-03-04T10:20:48;92736.03;;;8.10;85.80
6198;BME280;3132;42.622;23.328;2023-03-04T10:23:18;92714.97;;;7.76;88.87
6198;BME280;3132;42.622;23.328;2023-03-04T10:25:44;92737.84;;;7.94;88.13
6198;BME280;3132;42.622;23.328;2023-03-04T10:28:23;92731.66;;;8.26;85.51
6198;BME280;3132;42.622;23.328;2023-03-04T10:33:26;92713.94;;;8.48;84.74
6198;BME280;3132;42.622;23.328;2023-03-04T10:38:45;92704.50;;;8.82;83.55
6198;BME280;3132;42.622;23.328;2023-03-04T10:41:16;92701.91;;;8.82;83.97
6198;BME280;3132;42.622;23.328;2023-03-04T10:43:42;92668.88;;;8.67;83.72
6198;BME280;3132;42.622;23.328;2023-03-04T10:46:14;92697.91;;;9.97;79.27
6198;BME280;3132;42.622;23.328;2023-03-04T10:48:43;92685.00;;;10.15;76.16
6198;BME280;3132;42.622;23.328;2023-03-04T10:51:21;92688.81;;;9.94;78.10
6198;BME280;3132;42.622;23.328;2023-03-04T10:53:59;92698.97;;;9.57;78.12
6198;BME280;3132;42.622;23.328;2023-03-04T10:56:37;92691.88;;;10.01;76.36
6198;BME280;3132;42.622;23.328;2023-03-04T10:59:27;92697.72;;;9.88;75.81
6198;BME280;3132;42.622;23.328;2023-03-04T11:01:58;92686.06;;;9.32;79.76
6198;BME280;3132;42.622;23.328;2023-03-04T11:04:25;92664.88;;;9.48;78.17
6198;BME280;3132;42.622;23.328;2023-03-04T11:06:51;92671.19;;;9.76;77.05
6198;BME280;3132;42.622;23.328;2023-03-04T11:09:28;92664.44;;;8.73;81.92
6198;BME280;3132;42.622;23.328;2023-03-04T11:11:58;92644.78;;;8.11;85.67
6198;BME280;3132;42.622;23.328;2023-03-04T11:14:26;92641.66;;;8.14;89.23
6198;BME280;3132;42.622;23.328;2023-03-04T11:16:59;92655.97;;;7.62;87.24
6198;BME280;3132;42.622;23.328;2023-03-04T11:19:37;92650.50;;;8.08;85.24
6198;BME280;3132;42.622;23.328;2023-03-04T11:22:04;92653.06;;;8.54;84.01
6198;BME280;3132;42.622;23.328;2023-03-04T11:24:33;92650.13;;;8.75;83.97
6198;BME280;3132;42.622;23.328;2023-03-04T11:27:07;92647.59;;;8.50;83.41
6198;BME280;3132;42.622;23.328;2023-03-04T11:30:24;92636.91;;;8.62;86.77
6198;BME280;3132;42.622;23.328;2023-03-04T11:32:54;92650.16;;;9.24;83.08
6198;BME280;3132;42.622;23.328;2023-03-04T11:35:34;92639.84;;;9.52;83.38
6198;BME280;3132;42.622;23.328;2023-03-04T11:40:44;92635.91;;;8.53;87.37
6198;BME280;3132;42.622;23.328;2023-03-04T11:43:15;92629.56;;;8.69;85.34
6198;BME280;3132;42.622;23.328;2023-03-04T11:54:22;92617.63;;;8.58;86.52
6198;BME280;3132;42.622;23.328;2023-03-04T11:57:22;92617.63;;;8.68;87.72
6198;BME280;3132;42.622;23.328;2023-03-04T12:10:48;92608.03;;;8.58;84.15
6198;BME280;3132;42.622;23.328;2023-03-04T12:16:37;92580.38;;;8.72;83.28
6198;BME280;3132;42.622;23.328;2023-03-04T12:19:23;92600.34;;;8.92;81.85
6198;BME280;3132;42.622;23.328;2023-03-04T12:22:07;92599.69;;;8.61;83.65
6198;BME280;3132;42.622;23.328;2023-03-04T12:27:42;92578.38;;;9.03;83.26
6198;BME280;3132;42.622;23.328;2023-03-04T12:36:10;92582.50;;;8.65;84.18
6198;BME280;3132;42.622;23.328;2023-03-04T12:39:19;92581.59;;;8.95;83.88
6198;BME280;3132;42.622;23.328;2023-03-04T12:44:30;92552.72;;;8.86;83.46
6198;BME280;3132;42.622;23.328;2023-03-04T12:47:10;92586.16;;;9.13;82.54
6198;BME280;3132;42.622;23.328;2023-03-04T12:49:57;92558.63;;;8.97;82.78
6198;BME280;3132;42.622;23.328;2023-03-04T12:52:51;92570.09;;;9.01;81.15
6198;BME280;3132;42.622;23.328;2023-03-04T12:55:35;92563.13;;;8.86;82.16
6198;BME280;3132;42.622;23.328;2023-03-04T12:58:01;92560.78;;;8.90;82.84
6198;BME280;3132;42.622;23.328;2023-03-04T13:00:34;92561.56;;;8.16;85.75
6198;BME280;3132;42.622;23.328;2023-03-04T13:09:07;92549.59;;;9.28;82.24
6198;BME280;3132;42.622;23.328;2023-03-04T13:11:42;92546.00;;;9.19;81.18
6198;BME280;3132;42.622;23.328;2023-03-04T13:16:44;92542.44;;;9.43;79.79
6198;BME280;3132;42.622;23.328;2023-03-04T13:19:46;92539.63;;;9.40;81.41
6198;BME280;3132;42.622;23.328;2023-03-04T13:28:17;92533.25;;;9.51;79.87
6198;BME280;3132;42.622;23.328;2023-03-04T13:36:03;92530.91;;;9.49;79.80
6198;BME280;3132;42.622;23.328;2023-03-04T13:41:20;92525.53;;;9.41;80.61
6198;BME280;3132;42.622;23.328;2023-03-04T13:43:50;92479.38;;;9.13;82.02
6198;BME280;3132;42.622;23.328;2023-03-04T13:53:54;92427.66;;;8.68;79.19
6198;BME280;3132;42.622;23.328;2023-03-04T14:01:54;92505.81;;;9.30;81.07
6198;BME280;3132;42.622;23.328;2023-03-04T14:04:26;92493.41;;;9.17;80.93
6198;BME280;3132;42.622;23.328;2023-03-04T14:06:55;92485.56;;;9.22;81.31
6198;BME280;3132;42.622;23.328;2023-03-04T14:09:28;92498.88;;;9.49;80.48
6198;BME280;3132;42.622;23.328;2023-03-04T14:11:56;92495.59;;;9.67;80.94
6198;BME280;3132;42.622;23.328;2023-03-04T14:14:28;92484.59;;;9.70;80.53
6198;BME280;3132;42.622;23.328;2023-03-04T14:16:59;92496.31;;;9.96;77.36
6198;BME280;3132;42.622;23.328;2023-03-04T14:19:37;92498.19;;;9.67;78.39
6198;BME280;3132;42.622;23.328;2023-03-04T14:22:19;92496.69;;;9.61;78.74
6198;BME280;3132;42.622;23.328;2023-03-04T14:25:05;92481.69;;;9.48;84.66
6198;BME280;3132;42.622;23.328;2023-03-04T14:27:34;92483.97;;;9.26;81.08
6198;BME280;3132;42.622;23.328;2023-03-04T14:30:03;92484.91;;;9.40;79.47
6198;BME280;3132;42.622;23.328;2023-03-04T14:32:30;92484.03;;;9.16;80.37
6198;BME280;3132;42.622;23.328;2023-03-04T14:35:00;92484.59;;;9.13;81.34
6198;BME280;3132;42.622;23.328;2023-03-04T14:37:34;92484.84;;;9.45;79.66
6198;BME280;3132;42.622;23.328;2023-03-04T14:40:03;92480.19;;;9.42;78.57
6198;BME280;3132;42.622;23.328;2023-03-04T14:42:39;92461.88;;;9.18;79.66